sensor_id;sensor_type;location;lat;lon;timestamp;temperature;humidity
73576;DHT22;61859;49.204;8.140;2024-01-07T00:01:26;5.10;99.90
73576;DHT22;61859;49.204;8.140;2024-01-07T00:03:52;5.20;99.90
73576;DHT22;61859;49.204;8.140;2024-01-07T00:06:18;5.30;99.90
73576;DHT22;61859;49.204;8.140;2024-01-07T00:08:43;5.20;99.90
73576;DHT22;61859;49.204;8.140;2024-01-07T00:11:09;5.20;99.90
73576;DHT22;61859;49.204;8.140;2024-01-07T00:13:35;5.20;99.90
73576;DHT22;61859;49.204;8.140;2024-01-07T00:16:01;5.00;99.90
73576;DHT22;61859;49.204;8.140;2024-01-07T00:18:26;5.10;99.90
73576;DHT22;61859;49.204;8.140;2024-01-07T00:20:53;5.10;99.90
73576;DHT22;61859;49.204;8.140;2024-01-07T00:23:18;5.30;99.90
73576;DHT22;61859;49.204;8.140;2024-01-07T00:25:46;5.10;99.80
73576;DHT22;61859;49.204;8.140;2024-01-07T00:28:12;5.00;99.90
73576;DHT22;61859;49.204;8.140;2024-01-07T00:30:38;5.10;99.80
73576;DHT22;61859;49.204;8.140;2024-01-07T00:33:03;5.00;99.70
73576;DHT22;61859;49.204;8.140;2024-01-07T00:35:29;5.10;99.90
73576;DHT22;61859;49.204;8.140;2024-01-07T00:37:54;5.20;99.30
73576;DHT22;61859;49.204;8.140;2024-01-07T00:40:25;5.00;99.60
73576;DHT22;61859;49.204;8.140;2024-01-07T00:42:51;5.10;99.80
73576;DHT22;61859;49.204;8.140;2024-01-07T00:45:17;5.10;99.90
73576;DHT22;61859;49.204;8.140;2024-01-07T00:47:43;5.20;99.90
73576;DHT22;61859;49.204;8.140;2024-01-07T00:50:09;5.10;99.70
73576;DHT22;61859;49.204;8.140;2024-01-07T00:52:34;5.20;99.70
73576;DHT22;61859;49.204;8.140;2024-01-07T00:55:05;5.00;99.60
73576;DHT22;61859;49.204;8.140;2024-01-07T00:57:32;5.30;99.50
73576;DHT22;61859;49.204;8.140;2024-01-07T00:59:58;5.10;99.20
73576;DHT22;61859;49.204;8.140;2024-01-07T01:02:24;5.00;99.00
73576;DHT22;61859;49.204;8.140;2024-01-07T01:04:50;5.20;99.40
73576;DHT22;61859;49.204;8.140;2024-01-07T01:07:16;5.00;99.30
73576;DHT22;61859;49.204;8.140;2024-01-07T01:09:41;5.10;99.20
73576;DHT22;61859;49.204;8.140;2024-01-07T01:12:07;5.00;99.30
73576;DHT22;61859;49.204;8.140;2024-01-07T01:14:32;5.00;99.50
73576;DHT22;61859;49.204;8.140;2024-01-07T01:16:58;5.10;99.60
73576;DHT22;61859;49.204;8.140;2024-01-07T01:19:24;5.10;99.20
73576;DHT22;61859;49.204;8.140;2024-01-07T01:21:50;4.90;99.40
73576;DHT22;61859;49.204;8.140;2024-01-07T01:24:15;5.10;99.70
73576;DHT22;61859;49.204;8.140;2024-01-07T01:26:41;4.90;99.40
73576;DHT22;61859;49.204;8.140;2024-01-07T01:29:06;5.10;99.60
73576;DHT22;61859;49.204;8.140;2024-01-07T01:31:32;5.00;99.60
73576;DHT22;61859;49.204;8.140;2024-01-07T01:33:57;5.00;99.70
73576;DHT22;61859;49.204;8.140;2024-01-07T01:36:23;5.10;99.90
73576;DHT22;61859;49.204;8.140;2024-01-07T01:38:49;5.00;99.60
73576;DHT22;61859;49.204;8.140;2024-01-07T01:41:16;5.10;99.60
73576;DHT22;61859;49.204;8.140;2024-01-07T01:43:41;4.90;99.70
73576;DHT22;61859;49.204;8.140;2024-01-07T01:46:08;5.00;99.90
73576;DHT22;61859;49.204;8.140;2024-01-07T01:48:35;5.10;99.90
73576;DHT22;61859;49.204;8.140;2024-01-07T01:51:01;5.10;99.70
73576;DHT22;61859;49.204;8.140;2024-01-07T01:53:27;5.00;99.90
73576;DHT22;61859;49.204;8.140;2024-01-07T01:55:55;5.00;99.90
73576;DHT22;61859;49.204;8.140;2024-01-07T01:58:22;5.00;99.90
73576;DHT22;61859;49.204;8.140;2024-01-07T02:00:48;5.00;99.90
73576;DHT22;61859;49.204;8.140;2024-01-07T02:03:14;4.90;99.90
73576;DHT22;61859;49.204;8.140;2024-01-07T02:05:40;5.00;99.90
73576;DHT22;61859;49.204;8.140;2024-01-07T02:08:06;5.10;99.90
73576;DHT22;61859;49.204;8.140;2024-01-07T02:10:32;5.00;99.90
73576;DHT22;61859;49.204;8.140;2024-01-07T02:13:02;5.10;99.90
73576;DHT22;61859;49.204;8.140;2024-01-07T02:15:28;5.00;99.70
73576;DHT22;61859;49.204;8.140;2024-01-07T02:17:54;5.10;99.90
73576;DHT22;61859;49.204;8.140;2024-01-07T02:20:19;5.00;99.70
73576;DHT22;61859;49.204;8.140;2024-01-07T02:22:45;5.00;99.90
73576;DHT22;61859;49.204;8.140;2024-01-07T02:25:10;5.00;99.60
73576;DHT22;61859;49.204;8.140;2024-01-07T02:27:36;5.00;99.70
73576;DHT22;61859;49.204;8.140;2024-01-07T02:30:01;5.10;99.70
73576;DHT22;61859;49.204;8.140;2024-01-07T02:32:27;5.10;99.60
73576;DHT22;61859;49.204;8.140;2024-01-07T02:34:53;5.00;99.40
73576;DHT22;61859;49.204;8.140;2024-01-07T02:37:19;5.10;99.50
73576;DHT22;61859;49.204;8.140;2024-01-07T02:39:44;4.90;99.30
73576;DHT22;61859;49.204;8.140;2024-01-07T02:42:10;5.00;99.50
73576;DHT22;61859;49.204;8.140;2024-01-07T02:44:35;5.10;99.50
73576;DHT22;61859;49.204;8.140;2024-01-07T02:47:01;5.10;99.40
73576;DHT22;61859;49.204;8.140;2024-01-07T02:49:28;4.90;99.30
73576;DHT22;61859;49.204;8.140;2024-01-07T02:51:53;5.10;99.30
73576;DHT22;61859;49.204;8.140;2024-01-07T02:54:19;5.00;99.30
73576;DHT22;61859;49.204;8.140;2024-01-07T02:56:44;4.90;99.40
73576;DHT22;61859;49.204;8.140;2024-01-07T02:59:10;5.00;99.10
73576;DHT22;61859;49.204;8.140;2024-01-07T03:01:35;4.90;99.30
73576;DHT22;61859;49.204;8.140;2024-01-07T03:04:06;5.00;99.60
73576;DHT22;61859;49.204;8.140;2024-01-07T03:06:32;5.00;99.40
73576;DHT22;61859;49.204;8.140;2024-01-07T03:08:57;5.00;99.40
73576;DHT22;61859;49.204;8.140;2024-01-07T03:11:23;5.00;99.40
73576;DHT22;61859;49.204;8.140;2024-01-07T03:13:48;5.00;99.50
73576;DHT22;61859;49.204;8.140;2024-01-07T03:16:21;4.90;99.40
73576;DHT22;61859;49.204;8.140;2024-01-07T03:18:46;5.00;99.50
73576;DHT22;61859;49.204;8.140;2024-01-07T03:21:19;4.90;99.60
73576;DHT22;61859;49.204;8.140;2024-01-07T03:23:46;4.80;99.70
73576;DHT22;61859;49.204;8.140;2024-01-07T03:26:12;4.90;99.60
73576;DHT22;61859;49.204;8.140;2024-01-07T03:28:38;4.90;99.60
73576;DHT22;61859;49.204;8.140;2024-01-07T03:31:13;4.80;99.40
73576;DHT22;61859;49.204;8.140;2024-01-07T03:33:39;4.90;99.60
73576;DHT22;61859;49.204;8.140;2024-01-07T03:36:09;4.90;99.50
73576;DHT22;61859;49.204;8.140;2024-01-07T03:38:35;5.00;99.50
73576;DHT22;61859;49.204;8.140;2024-01-07T03:41:01;4.90;99.40
73576;DHT22;61859;49.204;8.140;2024-01-07T03:43:27;4.90;99.50
73576;DHT22;61859;49.204;8.140;2024-01-07T03:45:52;4.80;99.30
73576;DHT22;61859;49.204;8.140;2024-01-07T03:48:18;5.00;99.60
73576;DHT22;61859;49.204;8.140;2024-01-07T03:50:43;4.60;99.50
73576;DHT22;61859;49.204;8.140;2024-01-07T03:53:09;4.70;99.80
73576;DHT22;61859;49.204;8.140;2024-01-07T03:55:34;4.70;99.70
73576;DHT22;61859;49.204;8.140;2024-01-07T03:58:00;4.70;99.80
73576;DHT22;61859;49.204;8.140;2024-01-07T04:00:25;4.90;99.80
73576;DHT22;61859;49.204;8.140;2024-01-07T04:02:51;4.70;99.90
73576;DHT22;61859;49.204;8.140;2024-01-07T04:05:17;4.80;99.90
73576;DHT22;61859;49.204;8.140;2024-01-07T04:07:42;4.80;99.90
73576;DHT22;61859;49.204;8.140;2024-01-07T04:10:08;4.70;99.90
73576;DHT22;61859;49.204;8.140;2024-01-07T04:12:33;4.80;99.90
73576;DHT22;61859;49.204;8.140;2024-01-07T04:14:59;4.60;99.90
73576;DHT22;61859;49.204;8.140;2024-01-07T04:17:24;4.80;99.80
73576;DHT22;61859;49.204;8.140;2024-01-07T04:19:51;4.80;99.60
73576;DHT22;61859;49.204;8.140;2024-01-07T04:22:16;4.90;99.80
73576;DHT22;61859;49.204;8.140;2024-01-07T04:24:42;4.70;99.90
73576;DHT22;61859;49.204;8.140;2024-01-07T04:27:08;4.80;99.90
73576;DHT22;61859;49.204;8.140;2024-01-07T04:29:33;4.70;99.90
73576;DHT22;61859;49.204;8.140;2024-01-07T04:31:59;4.60;99.90
73576;DHT22;61859;49.204;8.140;2024-01-07T04:34:24;4.80;99.90
73576;DHT22;61859;49.204;8.140;2024-01-07T04:36:50;4.80;99.90
73576;DHT22;61859;49.204;8.140;2024-01-07T04:39:16;4.60;99.90
73576;DHT22;61859;49.204;8.140;2024-01-07T04:41:42;4.70;99.90
73576;DHT22;61859;49.204;8.140;2024-01-07T04:44:07;4.60;99.90
73576;DHT22;61859;49.204;8.140;2024-01-07T04:46:39;4.60;99.90
73576;DHT22;61859;49.204;8.140;2024-01-07T04:49:05;4.40;99.90
73576;DHT22;61859;49.204;8.140;2024-01-07T04:51:32;4.60;99.90
73576;DHT22;61859;49.204;8.140;2024-01-07T04:53:57;4.40;99.90
73576;DHT22;61859;49.204;8.140;2024-01-07T04:56:23;4.40;99.90
73576;DHT22;61859;49.204;8.140;2024-01-07T04:58:49;4.60;99.90
73576;DHT22;61859;49.204;8.140;2024-01-07T05:01:14;4.60;99.90
73576;DHT22;61859;49.204;8.140;2024-01-07T05:03:40;4.50;99.90
73576;DHT22;61859;49.204;8.140;2024-01-07T05:06:08;4.50;99.90
73576;DHT22;61859;49.204;8.140;2024-01-07T05:08:36;4.50;99.90
73576;DHT22;61859;49.204;8.140;2024-01-07T05:11:01;4.60;99.90
73576;DHT22;61859;49.204;8.140;2024-01-07T05:13:27;4.50;99.90
73576;DHT22;61859;49.204;8.140;2024-01-07T05:15:52;4.70;99.90
73576;DHT22;61859;49.204;8.140;2024-01-07T05:18:22;4.40;99.90
73576;DHT22;61859;49.204;8.140;2024-01-07T05:20:48;4.40;99.90
73576;DHT22;61859;49.204;8.140;2024-01-07T05:23:14;4.50;99.90
73576;DHT22;61859;49.204;8.140;2024-01-07T05:25:41;4.50;99.90
73576;DHT22;61859;49.204;8.140;2024-01-07T05:28:07;4.70;99.90
73576;DHT22;61859;49.204;8.140;2024-01-07T05:30:32;4.60;99.90
73576;DHT22;61859;49.204;8.140;2024-01-07T05:32:58;4.60;99.90
73576;DHT22;61859;49.204;8.140;2024-01-07T05:35:23;4.50;99.90
73576;DHT22;61859;49.204;8.140;2024-01-07T05:37:49;4.70;99.90
73576;DHT22;61859;49.204;8.140;2024-01-07T05:40:14;4.70;99.90
73576;DHT22;61859;49.204;8.140;2024-01-07T05:42:40;4.50;99.90
73576;DHT22;61859;49.204;8.140;2024-01-07T05:45:06;4.50;99.90
73576;DHT22;61859;49.204;8.140;2024-01-07T05:47:32;4.60;99.90
73576;DHT22;61859;49.204;8.140;2024-01-07T05:49:57;4.70;99.90
73576;DHT22;61859;49.204;8.140;2024-01-07T05:52:23;4.50;99.90
73576;DHT22;61859;49.204;8.140;2024-01-07T05:54:49;4.70;99.90
73576;DHT22;61859;49.204;8.140;2024-01-07T05:57:15;4.70;99.90
73576;DHT22;61859;49.204;8.140;2024-01-07T05:59:40;4.60;99.90
73576;DHT22;61859;49.204;8.140;2024-01-07T06:02:06;4.60;99.90
73576;DHT22;61859;49.204;8.140;2024-01-07T06:04:31;4.60;99.90
73576;DHT22;61859;49.204;8.140;2024-01-07T06:06:57;4.60;99.90
73576;DHT22;61859;49.204;8.140;2024-01-07T06:09:23;4.70;99.90
73576;DHT22;61859;49.204;8.140;2024-01-07T06:11:50;4.60;99.90
73576;DHT22;61859;49.204;8.140;2024-01-07T06:14:15;4.70;99.90
73576;DHT22;61859;49.204;8.140;2024-01-07T06:16:41;4.70;99.90
73576;DHT22;61859;49.204;8.140;2024-01-07T06:19:08;4.60;99.70
73576;DHT22;61859;49.204;8.140;2024-01-07T06:21:33;4.80;99.40
73576;DHT22;61859;49.204;8.140;2024-01-07T06:23:59;4.60;99.90
73576;DHT22;61859;49.204;8.140;2024-01-07T06:26:24;4.70;99.70
73576;DHT22;61859;49.204;8.140;2024-01-07T06:28:50;4.60;99.80
73576;DHT22;61859;49.204;8.140;2024-01-07T06:31:15;4.60;99.70
73576;DHT22;61859;49.204;8.140;2024-01-07T06:33:41;4.60;99.80
73576;DHT22;61859;49.204;8.140;2024-01-07T06:36:07;4.50;99.90
73576;DHT22;61859;49.204;8.140;2024-01-07T06:38:33;4.70;99.90
73576;DHT22;61859;49.204;8.140;2024-01-07T06:40:59;4.70;99.90
73576;DHT22;61859;49.204;8.140;2024-01-07T06:43:30;4.70;99.90
73576;DHT22;61859;49.204;8.140;2024-01-07T06:45:55;4.70;99.90
73576;DHT22;61859;49.204;8.140;2024-01-07T06:48:21;4.50;99.90
73576;DHT22;61859;49.204;8.140;2024-01-07T06:50:46;4.80;99.90
73576;DHT22;61859;49.204;8.140;2024-01-07T06:53:12;4.50;99.90
73576;DHT22;61859;49.204;8.140;2024-01-07T06:55:37;4.70;99.90
73576;DHT22;61859;49.204;8.140;2024-01-07T06:58:03;4.70;99.90
73576;DHT22;61859;49.204;8.140;2024-01-07T07:00:29;4.70;99.90
73576;DHT22;61859;49.204;8.140;2024-01-07T07:02:54;4.80;99.90
73576;DHT22;61859;49.204;8.140;2024-01-07T07:05:20;4.60;99.90
73576;DHT22;61859;49.204;8.140;2024-01-07T07:07:45;4.60;99.90
73576;DHT22;61859;49.204;8.140;2024-01-07T07:10:11;4.60;99.90
73576;DHT22;61859;49.204;8.140;2024-01-07T07:12:36;4.60;99.90
73576;DHT22;61859;49.204;8.140;2024-01-07T07:15:02;4.50;99.90
73576;DHT22;61859;49.204;8.140;2024-01-07T07:17:28;4.50;99.90
73576;DHT22;61859;49.204;8.140;2024-01-07T07:19:53;4.60;99.90
73576;DHT22;61859;49.204;8.140;2024-01-07T07:22:19;4.70;99.90
73576;DHT22;61859;49.204;8.140;2024-01-07T07:24:44;4.40;99.90
73576;DHT22;61859;49.204;8.140;2024-01-07T07:27:10;4.70;99.90
73576;DHT22;61859;49.204;8.140;2024-01-07T07:29:36;4.60;99.90
73576;DHT22;61859;49.204;8.140;2024-01-07T07:32:01;4.60;99.90
73576;DHT22;61859;49.204;8.140;2024-01-07T07:34:27;4.70;99.90
73576;DHT22;61859;49.204;8.140;2024-01-07T07:36:52;4.50;99.90
73576;DHT22;61859;49.204;8.140;2024-01-07T07:39:18;4.60;99.90
73576;DHT22;61859;49.204;8.140;2024-01-07T07:41:43;4.50;99.90
73576;DHT22;61859;49.204;8.140;2024-01-07T07:44:09;4.60;99.90
73576;DHT22;61859;49.204;8.140;2024-01-07T07:46:34;4.50;99.90
73576;DHT22;61859;49.204;8.140;2024-01-07T07:49:00;4.50;99.90
73576;DHT22;61859;49.204;8.140;2024-01-07T07:51:26;4.60;99.90
73576;DHT22;61859;49.204;8.140;2024-01-07T07:53:52;4.40;99.90
73576;DHT22;61859;49.204;8.140;2024-01-07T07:56:18;4.40;99.90
73576;DHT22;61859;49.204;8.140;2024-01-07T07:58:43;4.60;99.90
73576;DHT22;61859;49.204;8.140;2024-01-07T08:01:09;4.50;99.90
73576;DHT22;61859;49.204;8.140;2024-01-07T08:03:35;4.40;99.90
73576;DHT22;61859;49.204;8.140;2024-01-07T08:06:02;4.40;99.90
73576;DHT22;61859;49.204;8.140;2024-01-07T08:08:27;4.40;99.90
73576;DHT22;61859;49.204;8.140;2024-01-07T08:10:53;4.30;99.90
73576;DHT22;61859;49.204;8.140;2024-01-07T08:13:19;4.30;99.90
73576;DHT22;61859;49.204;8.140;2024-01-07T08:15:44;4.30;99.90
73576;DHT22;61859;49.204;8.140;2024-01-07T08:18:10;4.30;99.90
73576;DHT22;61859;49.204;8.140;2024-01-07T08:20:35;4.50;99.90
73576;DHT22;61859;49.204;8.140;2024-01-07T08:23:01;4.50;99.90
73576;DHT22;61859;49.204;8.140;2024-01-07T08:25:27;4.40;99.90
73576;DHT22;61859;49.204;8.140;2024-01-07T08:27:52;4.30;99.90
73576;DHT22;61859;49.204;8.140;2024-01-07T08:30:18;4.50;99.90
73576;DHT22;61859;49.204;8.140;2024-01-07T08:32:43;4.40;99.90
73576;DHT22;61859;49.204;8.140;2024-01-07T08:35:09;4.50;99.90
73576;DHT22;61859;49.204;8.140;2024-01-07T08:37:35;4.50;99.90
73576;DHT22;61859;49.204;8.140;2024-01-07T08:40:00;4.30;99.90
73576;DHT22;61859;49.204;8.140;2024-01-07T08:42:26;4.50;99.90
73576;DHT22;61859;49.204;8.140;2024-01-07T08:44:52;4.50;99.90
73576;DHT22;61859;49.204;8.140;2024-01-07T08:47:18;4.30;99.90
73576;DHT22;61859;49.204;8.140;2024-01-07T08:49:43;4.40;99.90
73576;DHT22;61859;49.204;8.140;2024-01-07T08:52:09;4.50;99.90
73576;DHT22;61859;49.204;8.140;2024-01-07T08:54:34;4.40;99.90
73576;DHT22;61859;49.204;8.140;2024-01-07T08:57:00;4.30;99.90
73576;DHT22;61859;49.204;8.140;2024-01-07T08:59:25;4.50;99.90
73576;DHT22;61859;49.204;8.140;2024-01-07T09:01:51;4.50;99.90
73576;DHT22;61859;49.204;8.140;2024-01-07T09:04:17;4.40;99.90
73576;DHT22;61859;49.204;8.140;2024-01-07T09:09:12;4.40;99.90
73576;DHT22;61859;49.204;8.140;2024-01-07T09:11:38;4.40;99.90
73576;DHT22;61859;49.204;8.140;2024-01-07T09:14:04;4.50;99.90
73576;DHT22;61859;49.204;8.140;2024-01-07T09:16:29;4.40;99.90
73576;DHT22;61859;49.204;8.140;2024-01-07T09:18:55;4.30;99.90
73576;DHT22;61859;49.204;8.140;2024-01-07T09:21:21;4.40;99.90
73576;DHT22;61859;49.204;8.140;2024-01-07T09:23:48;4.50;99.90
73576;DHT22;61859;49.204;8.140;2024-01-07T09:26:14;4.30;99.90
73576;DHT22;61859;49.204;8.140;2024-01-07T09:28:40;4.20;99.90
73576;DHT22;61859;49.204;8.140;2024-01-07T09:31:05;4.40;99.90
73576;DHT22;61859;49.204;8.140;2024-01-07T09:33:31;4.40;99.90
73576;DHT22;61859;49.204;8.140;2024-01-07T09:35:57;4.30;99.90
73576;DHT22;61859;49.204;8.140;2024-01-07T09:38:22;4.40;99.90
73576;DHT22;61859;49.204;8.140;2024-01-07T09:40:50;4.50;99.90
73576;DHT22;61859;49.204;8.140;2024-01-07T09:43:15;4.40;99.90
73576;DHT22;61859;49.204;8.140;2024-01-07T09:45:42;4.40;99.90
73576;DHT22;61859;49.204;8.140;2024-01-07T09:48:11;4.50;99.90
73576;DHT22;61859;49.204;8.140;2024-01-07T09:50:36;4.40;99.80
73576;DHT22;61859;49.204;8.140;2024-01-07T09:53:02;4.60;99.90
73576;DHT22;61859;49.204;8.140;2024-01-07T09:55:33;4.50;99.90
73576;DHT22;61859;49.204;8.140;2024-01-07T09:58:00;4.40;99.20
73576;DHT22;61859;49.204;8.140;2024-01-07T10:00:27;4.40;99.00
73576;DHT22;61859;49.204;8.140;2024-01-07T10:02:53;4.50;99.00
73576;DHT22;61859;49.204;8.140;2024-01-07T10:05:19;4.60;99.30
73576;DHT22;61859;49.204;8.140;2024-01-07T10:07:44;4.70;98.80
73576;DHT22;61859;49.204;8.140;2024-01-07T10:10:19;4.80;98.60
73576;DHT22;61859;49.204;8.140;2024-01-07T10:12:45;4.90;98.50
73576;DHT22;61859;49.204;8.140;2024-01-07T10:15:14;4.60;98.10
73576;DHT22;61859;49.204;8.140;2024-01-07T10:17:41;4.80;98.00
73576;DHT22;61859;49.204;8.140;2024-01-07T10:20:08;4.80;97.50
73576;DHT22;61859;49.204;8.140;2024-01-07T10:22:39;4.60;97.00
73576;DHT22;61859;49.204;8.140;2024-01-07T10:25:05;4.80;97.00
73576;DHT22;61859;49.204;8.140;2024-01-07T10:27:34;4.80;95.60
73576;DHT22;61859;49.204;8.140;2024-01-07T10:30:02;4.90;95.90
73576;DHT22;61859;49.204;8.140;2024-01-07T10:32:28;5.00;94.70
73576;DHT22;61859;49.204;8.140;2024-01-07T10:35:01;5.00;94.40
73576;DHT22;61859;49.204;8.140;2024-01-07T10:37:28;5.00;94.80
73576;DHT22;61859;49.204;8.140;2024-01-07T10:39:56;4.80;95.00
73576;DHT22;61859;49.204;8.140;2024-01-07T10:42:23;4.80;94.70
73576;DHT22;61859;49.204;8.140;2024-01-07T10:44:49;4.80;94.50
73576;DHT22;61859;49.204;8.140;2024-01-07T10:47:16;4.60;93.70
73576;DHT22;61859;49.204;8.140;2024-01-07T10:49:48;4.50;94.00
73576;DHT22;61859;49.204;8.140;2024-01-07T10:52:16;4.50;94.00
73576;DHT22;61859;49.204;8.140;2024-01-07T10:54:42;4.50;94.30
73576;DHT22;61859;49.204;8.140;2024-01-07T10:57:27;4.50;94.40
73576;DHT22;61859;49.204;8.140;2024-01-07T10:59:56;4.30;94.00
73576;DHT22;61859;49.204;8.140;2024-01-07T11:02:22;4.40;93.40
73576;DHT22;61859;49.204;8.140;2024-01-07T11:04:54;4.40;92.70
73576;DHT22;61859;49.204;8.140;2024-01-07T11:07:34;4.40;92.50
73576;DHT22;61859;49.204;8.140;2024-01-07T11:10:10;4.50;92.50
73576;DHT22;61859;49.204;8.140;2024-01-07T11:12:37;4.30;92.40
73576;DHT22;61859;49.204;8.140;2024-01-07T11:15:03;4.30;92.30
73576;DHT22;61859;49.204;8.140;2024-01-07T11:19:59;4.20;92.00
73576;DHT22;61859;49.204;8.140;2024-01-07T11:22:26;4.30;92.30
73576;DHT22;61859;49.204;8.140;2024-01-07T11:24:59;4.40;92.30
73576;DHT22;61859;49.204;8.140;2024-01-07T11:27:29;4.50;91.50
73576;DHT22;61859;49.204;8.140;2024-01-07T11:30:05;4.50;91.00
73576;DHT22;61859;49.204;8.140;2024-01-07T11:32:33;4.60;91.10
73576;DHT22;61859;49.204;8.140;2024-01-07T11:35:00;4.50;91.00
73576;DHT22;61859;49.204;8.140;2024-01-07T11:37:26;4.50;90.70
73576;DHT22;61859;49.204;8.140;2024-01-07T11:39:55;4.70;90.60
73576;DHT22;61859;49.204;8.140;2024-01-07T11:42:21;4.40;91.20
73576;DHT22;61859;49.204;8.140;2024-01-07T11:44:49;4.50;90.60
73576;DHT22;61859;49.204;8.140;2024-01-07T11:47:18;4.60;90.00
73576;DHT22;61859;49.204;8.140;2024-01-07T11:49:44;4.30;90.10
73576;DHT22;61859;49.204;8.140;2024-01-07T11:52:10;4.40;90.20
73576;DHT22;61859;49.204;8.140;2024-01-07T11:54:37;4.30;89.80
73576;DHT22;61859;49.204;8.140;2024-01-07T11:57:04;4.10;89.90
73576;DHT22;61859;49.204;8.140;2024-01-07T11:59:29;4.30;89.90
73576;DHT22;61859;49.204;8.140;2024-01-07T12:01:55;4.30;90.10
73576;DHT22;61859;49.204;8.140;2024-01-07T12:04:21;4.30;90.30
73576;DHT22;61859;49.204;8.140;2024-01-07T12:06:50;4.40;90.40
73576;DHT22;61859;49.204;8.140;2024-01-07T12:09:16;4.20;89.80
73576;DHT22;61859;49.204;8.140;2024-01-07T12:11:42;4.20;90.50
73576;DHT22;61859;49.204;8.140;2024-01-07T12:14:08;4.20;90.10
73576;DHT22;61859;49.204;8.140;2024-01-07T12:16:35;4.00;89.70
73576;DHT22;61859;49.204;8.140;2024-01-07T12:19:01;4.20;89.80
73576;DHT22;61859;49.204;8.140;2024-01-07T12:21:26;4.00;89.90
73576;DHT22;61859;49.204;8.140;2024-01-07T12:23:54;3.90;90.20
73576;DHT22;61859;49.204;8.140;2024-01-07T12:26:20;3.90;90.80
73576;DHT22;61859;49.204;8.140;2024-01-07T12:28:56;4.00;90.40
73576;DHT22;61859;49.204;8.140;2024-01-07T12:31:25;4.00;90.40
73576;DHT22;61859;49.204;8.140;2024-01-07T12:33:52;4.10;89.90
73576;DHT22;61859;49.204;8.140;2024-01-07T12:36:21;4.10;90.00
73576;DHT22;61859;49.204;8.140;2024-01-07T12:38:47;4.00;89.80
73576;DHT22;61859;49.204;8.140;2024-01-07T12:41:13;4.20;89.60
73576;DHT22;61859;49.204;8.140;2024-01-07T12:43:38;4.10;89.10
73576;DHT22;61859;49.204;8.140;2024-01-07T12:46:04;4.10;89.60
73576;DHT22;61859;49.204;8.140;2024-01-07T12:48:31;4.20;89.80
73576;DHT22;61859;49.204;8.140;2024-01-07T12:50:57;4.00;88.50
73576;DHT22;61859;49.204;8.140;2024-01-07T12:53:23;3.90;89.20
73576;DHT22;61859;49.204;8.140;2024-01-07T12:55:48;4.00;89.00
73576;DHT22;61859;49.204;8.140;2024-01-07T12:58:14;3.90;88.90
73576;DHT22;61859;49.204;8.140;2024-01-07T13:00:40;3.80;88.80
73576;DHT22;61859;49.204;8.140;2024-01-07T13:03:06;3.70;88.80
73576;DHT22;61859;49.204;8.140;2024-01-07T13:05:33;3.80;89.40
73576;DHT22;61859;49.204;8.140;2024-01-07T13:07:59;3.80;89.70
73576;DHT22;61859;49.204;8.140;2024-01-07T13:10:25;3.60;89.70
73576;DHT22;61859;49.204;8.140;2024-01-07T13:12:51;3.90;89.60
73576;DHT22;61859;49.204;8.140;2024-01-07T13:15:16;3.80;89.60
73576;DHT22;61859;49.204;8.140;2024-01-07T13:17:42;3.80;89.70
73576;DHT22;61859;49.204;8.140;2024-01-07T13:20:08;3.60;90.50
73576;DHT22;61859;49.204;8.140;2024-01-07T13:22:37;3.90;90.10
73576;DHT22;61859;49.204;8.140;2024-01-07T13:25:05;3.90;89.80
73576;DHT22;61859;49.204;8.140;2024-01-07T13:27:30;3.60;89.60
73576;DHT22;61859;49.204;8.140;2024-01-07T13:29:56;3.60;89.90
73576;DHT22;61859;49.204;8.140;2024-01-07T13:32:21;3.60;90.30
73576;DHT22;61859;49.204;8.140;2024-01-07T13:34:47;3.70;90.50
73576;DHT22;61859;49.204;8.140;2024-01-07T13:37:13;3.70;90.70
73576;DHT22;61859;49.204;8.140;2024-01-07T13:39:39;3.70;90.80
73576;DHT22;61859;49.204;8.140;2024-01-07T13:42:05;3.60;90.20
73576;DHT22;61859;49.204;8.140;2024-01-07T13:44:31;3.50;90.20
73576;DHT22;61859;49.204;8.140;2024-01-07T13:46:56;3.50;89.70
73576;DHT22;61859;49.204;8.140;2024-01-07T13:49:22;3.40;90.10
73576;DHT22;61859;49.204;8.140;2024-01-07T13:51:48;3.60;89.70
73576;DHT22;61859;49.204;8.140;2024-01-07T13:54:13;3.30;90.10
73576;DHT22;61859;49.204;8.140;2024-01-07T13:56:43;3.40;90.30
73576;DHT22;61859;49.204;8.140;2024-01-07T13:59:10;3.30;90.30
73576;DHT22;61859;49.204;8.140;2024-01-07T14:01:36;3.50;90.60
73576;DHT22;61859;49.204;8.140;2024-01-07T14:04:01;3.40;90.50
73576;DHT22;61859;49.204;8.140;2024-01-07T14:06:27;3.40;90.50
73576;DHT22;61859;49.204;8.140;2024-01-07T14:08:53;3.30;90.00
73576;DHT22;61859;49.204;8.140;2024-01-07T14:11:19;3.30;89.90
73576;DHT22;61859;49.204;8.140;2024-01-07T14:13:45;3.30;89.40
73576;DHT22;61859;49.204;8.140;2024-01-07T14:16:12;3.20;89.50
73576;DHT22;61859;49.204;8.140;2024-01-07T14:18:37;3.20;89.10
73576;DHT22;61859;49.204;8.140;2024-01-07T14:21:03;3.10;88.80
73576;DHT22;61859;49.204;8.140;2024-01-07T14:23:28;3.10;88.70
73576;DHT22;61859;49.204;8.140;2024-01-07T14:25:56;3.00;88.60
73576;DHT22;61859;49.204;8.140;2024-01-07T14:28:22;3.00;88.70
73576;DHT22;61859;49.204;8.140;2024-01-07T14:30:48;3.00;88.80
73576;DHT22;61859;49.204;8.140;2024-01-07T14:33:14;2.90;89.10
73576;DHT22;61859;49.204;8.140;2024-01-07T14:35:40;2.90;88.40
73576;DHT22;61859;49.204;8.140;2024-01-07T14:38:05;3.00;88.50
73576;DHT22;61859;49.204;8.140;2024-01-07T14:40:31;3.00;88.70
73576;DHT22;61859;49.204;8.140;2024-01-07T14:42:56;2.90;88.40
73576;DHT22;61859;49.204;8.140;2024-01-07T14:45:26;2.80;88.50
73576;DHT22;61859;49.204;8.140;2024-01-07T14:47:52;2.70;88.00
73576;DHT22;61859;49.204;8.140;2024-01-07T14:50:18;2.80;88.10
73576;DHT22;61859;49.204;8.140;2024-01-07T14:52:44;2.60;87.80
73576;DHT22;61859;49.204;8.140;2024-01-07T14:55:10;2.70;87.40
73576;DHT22;61859;49.204;8.140;2024-01-07T14:57:38;2.80;87.90
73576;DHT22;61859;49.204;8.140;2024-01-07T15:00:04;2.70;88.30
73576;DHT22;61859;49.204;8.140;2024-01-07T15:02:30;2.60;88.40
73576;DHT22;61859;49.204;8.140;2024-01-07T15:04:56;2.60;88.10
73576;DHT22;61859;49.204;8.140;2024-01-07T15:07:23;2.60;88.30
73576;DHT22;61859;49.204;8.140;2024-01-07T15:09:49;2.50;88.00
73576;DHT22;61859;49.204;8.140;2024-01-07T15:12:15;2.70;88.30
73576;DHT22;61859;49.204;8.140;2024-01-07T15:14:40;2.50;88.40
73576;DHT22;61859;49.204;8.140;2024-01-07T15:17:06;2.40;88.00
73576;DHT22;61859;49.204;8.140;2024-01-07T15:19:31;2.30;88.40
73576;DHT22;61859;49.204;8.140;2024-01-07T15:21:57;2.60;88.80
73576;DHT22;61859;49.204;8.140;2024-01-07T15:24:23;2.50;88.50
73576;DHT22;61859;49.204;8.140;2024-01-07T15:26:48;2.50;88.70
73576;DHT22;61859;49.204;8.140;2024-01-07T15:29:14;2.60;89.10
73576;DHT22;61859;49.204;8.140;2024-01-07T15:31:40;2.40;88.60
73576;DHT22;61859;49.204;8.140;2024-01-07T15:34:05;2.50;88.30
73576;DHT22;61859;49.204;8.140;2024-01-07T15:36:32;2.50;88.20
73576;DHT22;61859;49.204;8.140;2024-01-07T15:38:59;2.40;88.20
73576;DHT22;61859;49.204;8.140;2024-01-07T15:41:24;2.40;87.80
73576;DHT22;61859;49.204;8.140;2024-01-07T15:43:50;2.40;87.80